sensor_id;sensor_type;location;lat;lon;timestamp;P1;durP1;ratioP1;P2;durP2;ratioP2
69937;SDS011;57248;47.320;15.998;2023-04-06T00:01:00;7.68;;;1.77;;
69937;SDS011;57248;47.320;15.998;2023-04-06T00:03:32;6.88;;;2.00;;
69937;SDS011;57248;47.320;15.998;2023-04-06T00:06:04;5.17;;;1.63;;
69937;SDS011;57248;47.320;15.998;2023-04-06T00:08:36;6.30;;;1.80;;
69937;SDS011;57248;47.320;15.998;2023-04-06T00:11:08;5.95;;;1.55;;
69937;SDS011;57248;47.320;15.998;2023-04-06T00:13:40;7.18;;;1.70;;
69937;SDS011;57248;47.320;15.998;2023-04-06T00:16:12;7.05;;;1.52;;
69937;SDS011;57248;47.320;15.998;2023-04-06T00:18:44;5.90;;;1.50;;
69937;SDS011;57248;47.320;15.998;2023-04-06T00:21:23;8.57;;;1.95;;
69937;SDS011;57248;47.320;15.998;2023-04-06T00:23:55;6.40;;;1.95;;
69937;SDS011;57248;47.320;15.998;2023-04-06T00:26:27;6.43;;;1.83;;
69937;SDS011;57248;47.320;15.998;2023-04-06T00:28:59;5.57;;;1.60;;
69937;SDS011;57248;47.320;15.998;2023-04-06T00:31:31;7.90;;;2.10;;
69937;SDS011;57248;47.320;15.998;2023-04-06T00:34:03;8.88;;;2.00;;
69937;SDS011;57248;47.320;15.998;2023-04-06T00:36:35;6.18;;;2.17;;
69937;SDS011;57248;47.320;15.998;2023-04-06T00:39:01;7.23;;;1.87;;
69937;SDS011;57248;47.320;15.998;2023-04-06T00:41:32;7.03;;;1.90;;
69937;SDS011;57248;47.320;15.998;2023-04-06T00:44:11;6.40;;;1.85;;
69937;SDS011;57248;47.320;15.998;2023-04-06T00:46:43;6.03;;;1.67;;
69937;SDS011;57248;47.320;15.998;2023-04-06T00:49:16;7.28;;;1.98;;
69937;SDS011;57248;47.320;15.998;2023-04-06T00:51:48;5.77;;;1.70;;
69937;SDS011;57248;47.320;15.998;2023-04-06T00:54:20;5.32;;;1.58;;
69937;SDS011;57248;47.320;15.998;2023-04-06T00:56:52;7.07;;;1.90;;
69937;SDS011;57248;47.320;15.998;2023-04-06T00:59:27;5.85;;;1.70;;
69937;SDS011;57248;47.320;15.998;2023-04-06T01:02:01;6.00;;;2.00;;
69937;SDS011;57248;47.320;15.998;2023-04-06T01:04:33;7.07;;;2.13;;
69937;SDS011;57248;47.320;15.998;2023-04-06T01:07:10;5.63;;;1.70;;
69937;SDS011;57248;47.320;15.998;2023-04-06T01:09:55;7.40;;;1.90;;
69937;SDS011;57248;47.320;15.998;2023-04-06T01:12:28;5.40;;;1.67;;
69937;SDS011;57248;47.320;15.998;2023-04-06T01:14:57;8.10;;;1.98;;
69937;SDS011;57248;47.320;15.998;2023-04-06T01:17:32;7.97;;;2.23;;
69937;SDS011;57248;47.320;15.998;2023-04-06T01:20:16;6.85;;;2.00;;
69937;SDS011;57248;47.320;15.998;2023-04-06T01:22:50;8.15;;;2.17;;
69937;SDS011;57248;47.320;15.998;2023-04-06T01:25:17;7.45;;;2.33;;
69937;SDS011;57248;47.320;15.998;2023-04-06T01:28:00;7.45;;;2.22;;
69937;SDS011;57248;47.320;15.998;2023-04-06T01:31:08;6.90;;;1.97;;
69937;SDS011;57248;47.320;15.998;2023-04-06T01:33:44;6.93;;;2.05;;
69937;SDS011;57248;47.320;15.998;2023-04-06T01:36:19;7.75;;;2.20;;
69937;SDS011;57248;47.320;15.998;2023-04-06T01:39:01;9.23;;;2.30;;
69937;SDS011;57248;47.320;15.998;2023-04-06T01:41:36;6.43;;;2.10;;
69937;SDS011;57248;47.320;15.998;2023-04-06T01:44:08;8.03;;;2.53;;
69937;SDS011;57248;47.320;15.998;2023-04-06T01:46:40;7.53;;;2.40;;
69937;SDS011;57248;47.320;15.998;2023-04-06T01:49:16;6.43;;;1.80;;
69937;SDS011;57248;47.320;15.998;2023-04-06T01:51:52;8.93;;;2.40;;
69937;SDS011;57248;47.320;15.998;2023-04-06T01:54:25;6.95;;;1.95;;
69937;SDS011;57248;47.320;15.998;2023-04-06T01:57:11;6.87;;;2.20;;
69937;SDS011;57248;47.320;15.998;2023-04-06T01:59:49;7.22;;;2.22;;
69937;SDS011;57248;47.320;15.998;2023-04-06T02:02:38;7.05;;;2.15;;
69937;SDS011;57248;47.320;15.998;2023-04-06T02:05:17;7.00;;;1.75;;
69937;SDS011;57248;47.320;15.998;2023-04-06T02:07:53;8.27;;;2.10;;
69937;SDS011;57248;47.320;15.998;2023-04-06T02:10:31;5.97;;;1.73;;
69937;SDS011;57248;47.320;15.998;2023-04-06T02:13:12;7.70;;;2.35;;
69937;SDS011;57248;47.320;15.998;2023-04-06T02:15:48;8.48;;;2.25;;
69937;SDS011;57248;47.320;15.998;2023-04-06T02:18:20;9.68;;;2.22;;
69937;SDS011;57248;47.320;15.998;2023-04-06T02:20:52;6.97;;;2.15;;
69937;SDS011;57248;47.320;15.998;2023-04-06T02:23:24;8.20;;;2.30;;
69937;SDS011;57248;47.320;15.998;2023-04-06T02:25:56;9.70;;;2.70;;
69937;SDS011;57248;47.320;15.998;2023-04-06T02:28:28;6.97;;;2.00;;
69937;SDS011;57248;47.320;15.998;2023-04-06T02:31:00;7.03;;;2.08;;
69937;SDS011;57248;47.320;15.998;2023-04-06T02:33:33;7.43;;;2.08;;
69937;SDS011;57248;47.320;15.998;2023-04-06T02:36:06;5.83;;;1.83;;
69937;SDS011;57248;47.320;15.998;2023-04-06T02:38:38;6.35;;;1.52;;
69937;SDS011;57248;47.320;15.998;2023-04-06T02:41:10;7.82;;;1.70;;
69937;SDS011;57248;47.320;15.998;2023-04-06T02:43:43;5.90;;;1.95;;
69937;SDS011;57248;47.320;15.998;2023-04-06T02:46:35;8.85;;;1.60;;
69937;SDS011;57248;47.320;15.998;2023-04-06T02:49:07;6.33;;;1.57;;
69937;SDS011;57248;47.320;15.998;2023-04-06T02:51:39;8.23;;;1.85;;
69937;SDS011;57248;47.320;15.998;2023-04-06T02:54:22;6.13;;;1.83;;
69937;SDS011;57248;47.320;15.998;2023-04-06T02:56:54;4.95;;;1.38;;
69937;SDS011;57248;47.320;15.998;2023-04-06T02:59:35;7.10;;;2.00;;
69937;SDS011;57248;47.320;15.998;2023-04-06T03:02:20;6.87;;;2.27;;
69937;SDS011;57248;47.320;15.998;2023-04-06T03:05:00;6.85;;;2.28;;
69937;SDS011;57248;47.320;15.998;2023-04-06T03:07:36;7.60;;;2.08;;
69937;SDS011;57248;47.320;15.998;2023-04-06T03:10:14;7.40;;;2.22;;
69937;SDS011;57248;47.320;15.998;2023-04-06T03:12:48;6.03;;;1.92;;
69937;SDS011;57248;47.320;15.998;2023-04-06T03:15:23;6.80;;;2.37;;
69937;SDS011;57248;47.320;15.998;2023-04-06T03:18:07;7.80;;;2.58;;
69937;SDS011;57248;47.320;15.998;2023-04-06T03:20:47;8.35;;;2.42;;
69937;SDS011;57248;47.320;15.998;2023-04-06T03:23:14;7.05;;;2.15;;
69937;SDS011;57248;47.320;15.998;2023-04-06T03:25:50;7.07;;;2.25;;
69937;SDS011;57248;47.320;15.998;2023-04-06T03:28:22;7.80;;;2.43;;
69937;SDS011;57248;47.320;15.998;2023-04-06T03:30:57;8.70;;;2.20;;
69937;SDS011;57248;47.320;15.998;2023-04-06T03:33:55;8.18;;;2.30;;
69937;SDS011;57248;47.320;15.998;2023-04-06T03:36:33;6.03;;;1.90;;
69937;SDS011;57248;47.320;15.998;2023-04-06T03:39:05;8.80;;;2.17;;
69937;SDS011;57248;47.320;15.998;2023-04-06T03:41:40;7.93;;;2.10;;
69937;SDS011;57248;47.320;15.998;2023-04-06T03:44:35;5.25;;;1.73;;
69937;SDS011;57248;47.320;15.998;2023-04-06T03:47:07;7.07;;;2.03;;
69937;SDS011;57248;47.320;15.998;2023-04-06T03:49:39;6.88;;;2.47;;
69937;SDS011;57248;47.320;15.998;2023-04-06T03:52:13;7.07;;;2.20;;
69937;SDS011;57248;47.320;15.998;2023-04-06T03:54:45;6.57;;;2.30;;
69937;SDS011;57248;47.320;15.998;2023-04-06T03:57:17;6.22;;;1.95;;
69937;SDS011;57248;47.320;15.998;2023-04-06T03:59:49;8.63;;;2.22;;
69937;SDS011;57248;47.320;15.998;2023-04-06T04:02:25;5.88;;;2.20;;
69937;SDS011;57248;47.320;15.998;2023-04-06T04:04:56;8.15;;;2.30;;
69937;SDS011;57248;47.320;15.998;2023-04-06T04:07:28;9.70;;;2.27;;
69937;SDS011;57248;47.320;15.998;2023-04-06T04:10:02;7.78;;;2.38;;
69937;SDS011;57248;47.320;15.998;2023-04-06T04:12:36;9.70;;;2.58;;
69937;SDS011;57248;47.320;15.998;2023-04-06T04:15:07;8.90;;;2.60;;
69937;SDS011;57248;47.320;15.998;2023-04-06T04:17:47;10.48;;;2.40;;
69937;SDS011;57248;47.320;15.998;2023-04-06T04:20:20;8.93;;;2.47;;
69937;SDS011;57248;47.320;15.998;2023-04-06T04:22:52;9.60;;;2.28;;
69937;SDS011;57248;47.320;15.998;2023-04-06T04:25:24;8.35;;;2.70;;
69937;SDS011;57248;47.320;15.998;2023-04-06T04:27:50;11.30;;;2.70;;
69937;SDS011;57248;47.320;15.998;2023-04-06T04:30:23;8.38;;;2.50;;
69937;SDS011;57248;47.320;15.998;2023-04-06T04:32:54;8.77;;;2.75;;
69937;SDS011;57248;47.320;15.998;2023-04-06T04:35:27;7.82;;;2.22;;
69937;SDS011;57248;47.320;15.998;2023-04-06T04:37:59;9.55;;;2.38;;
69937;SDS011;57248;47.320;15.998;2023-04-06T04:40:34;7.20;;;2.47;;
69937;SDS011;57248;47.320;15.998;2023-04-06T04:43:08;8.32;;;2.67;;
69937;SDS011;57248;47.320;15.998;2023-04-06T04:45:40;8.07;;;2.70;;
69937;SDS011;57248;47.320;15.998;2023-04-06T04:48:44;6.38;;;2.30;;
69937;SDS011;57248;47.320;15.998;2023-04-06T04:51:16;7.47;;;2.60;;
69937;SDS011;57248;47.320;15.998;2023-04-06T04:54:08;9.50;;;3.50;;
69937;SDS011;57248;47.320;15.998;2023-04-06T04:56:41;12.82;;;4.88;;
69937;SDS011;57248;47.320;15.998;2023-04-06T04:59:34;13.70;;;4.85;;
69937;SDS011;57248;47.320;15.998;2023-04-06T05:02:14;8.25;;;2.55;;
69937;SDS011;57248;47.320;15.998;2023-04-06T05:05:05;10.30;;;3.15;;
69937;SDS011;57248;47.320;15.998;2023-04-06T05:07:39;11.73;;;3.00;;
69937;SDS011;57248;47.320;15.998;2023-04-06T05:10:23;7.88;;;2.42;;
69937;SDS011;57248;47.320;15.998;2023-04-06T05:12:59;7.00;;;2.75;;
69937;SDS011;57248;47.320;15.998;2023-04-06T05:15:32;8.60;;;2.90;;
69937;SDS011;57248;47.320;15.998;2023-04-06T05:18:18;6.93;;;2.42;;
69937;SDS011;57248;47.320;15.998;2023-04-06T05:20:58;9.03;;;2.80;;
69937;SDS011;57248;47.320;15.998;2023-04-06T05:23:51;11.93;;;3.38;;
69937;SDS011;57248;47.320;15.998;2023-04-06T05:26:23;9.60;;;3.20;;
69937;SDS011;57248;47.320;15.998;2023-04-06T05:29:01;9.35;;;2.45;;
69937;SDS011;57248;47.320;15.998;2023-04-06T05:31:36;10.93;;;2.90;;
69937;SDS011;57248;47.320;15.998;2023-04-06T05:34:08;7.97;;;2.47;;
69937;SDS011;57248;47.320;15.998;2023-04-06T05:36:41;9.50;;;3.67;;
69937;SDS011;57248;47.320;15.998;2023-04-06T05:39:20;12.43;;;3.88;;
69937;SDS011;57248;47.320;15.998;2023-04-06T05:41:53;10.73;;;3.70;;
69937;SDS011;57248;47.320;15.998;2023-04-06T05:44:44;11.35;;;4.70;;
69937;SDS011;57248;47.320;15.998;2023-04-06T05:47:17;13.20;;;5.13;;
69937;SDS011;57248;47.320;15.998;2023-04-06T05:49:58;13.68;;;5.45;;
69937;SDS011;57248;47.320;15.998;2023-04-06T05:52:34;17.33;;;6.55;;
69937;SDS011;57248;47.320;15.998;2023-04-06T05:55:06;20.90;;;6.20;;
69937;SDS011;57248;47.320;15.998;2023-04-06T05:57:45;13.20;;;4.70;;
69937;SDS011;57248;47.320;15.998;2023-04-06T06:00:18;10.83;;;4.37;;
69937;SDS011;57248;47.320;15.998;2023-04-06T06:03:00;11.05;;;3.40;;
69937;SDS011;57248;47.320;15.998;2023-04-06T06:05:38;8.55;;;3.50;;
69937;SDS011;57248;47.320;15.998;2023-04-06T06:08:17;7.13;;;2.95;;
69937;SDS011;57248;47.320;15.998;2023-04-06T06:10:50;10.02;;;2.88;;
69937;SDS011;57248;47.320;15.998;2023-04-06T06:13:23;8.50;;;2.90;;
69937;SDS011;57248;47.320;15.998;2023-04-06T06:15:50;7.97;;;3.28;;
69937;SDS011;57248;47.320;15.998;2023-04-06T06:18:32;9.23;;;2.80;;
69937;SDS011;57248;47.320;15.998;2023-04-06T06:21:06;7.25;;;2.40;;
69937;SDS011;57248;47.320;15.998;2023-04-06T06:23:39;7.43;;;3.03;;
69937;SDS011;57248;47.320;15.998;2023-04-06T06:26:16;7.53;;;3.10;;
69937;SDS011;57248;47.320;15.998;2023-04-06T06:28:49;9.98;;;3.40;;
69937;SDS011;57248;47.320;15.998;2023-04-06T06:31:22;10.43;;;3.60;;
69937;SDS011;57248;47.320;15.998;2023-04-06T06:33:54;9.18;;;3.60;;
69937;SDS011;57248;47.320;15.998;2023-04-06T06:36:26;15.20;;;3.60;;
69937;SDS011;57248;47.320;15.998;2023-04-06T06:38:59;10.03;;;3.67;;
69937;SDS011;57248;47.320;15.998;2023-04-06T06:41:26;12.00;;;4.72;;
69937;SDS011;57248;47.320;15.998;2023-04-06T06:43:58;12.70;;;4.97;;
69937;SDS011;57248;47.320;15.998;2023-04-06T06:46:33;12.82;;;4.22;;
69937;SDS011;57248;47.320;15.998;2023-04-06T06:49:05;7.93;;;3.53;;
69937;SDS011;57248;47.320;15.998;2023-04-06T06:51:38;10.27;;;3.33;;
69937;SDS011;57248;47.320;15.998;2023-04-06T06:54:10;11.38;;;4.25;;
69937;SDS011;57248;47.320;15.998;2023-04-06T06:56:42;10.70;;;4.35;;
69937;SDS011;57248;47.320;15.998;2023-04-06T06:59:14;10.32;;;5.03;;
69937;SDS011;57248;47.320;15.998;2023-04-06T07:01:49;9.93;;;4.85;;
69937;SDS011;57248;47.320;15.998;2023-04-06T07:04:21;9.57;;;4.37;;
69937;SDS011;57248;47.320;15.998;2023-04-06T07:06:53;10.57;;;4.97;;
69937;SDS011;57248;47.320;15.998;2023-04-06T07:09:26;7.95;;;2.90;;
69937;SDS011;57248;47.320;15.998;2023-04-06T07:11:58;11.45;;;3.97;;
69937;SDS011;57248;47.320;15.998;2023-04-06T07:14:30;9.38;;;3.90;;
69937;SDS011;57248;47.320;15.998;2023-04-06T07:17:02;6.90;;;3.63;;
69937;SDS011;57248;47.320;15.998;2023-04-06T07:19:49;8.65;;;3.92;;
69937;SDS011;57248;47.320;15.998;2023-04-06T07:22:21;11.73;;;4.10;;
69937;SDS011;57248;47.320;15.998;2023-04-06T07:24:53;7.78;;;3.65;;
69937;SDS011;57248;47.320;15.998;2023-04-06T07:27:26;7.60;;;3.55;;
69937;SDS011;57248;47.320;15.998;2023-04-06T07:29:52;7.67;;;3.73;;
69937;SDS011;57248;47.320;15.998;2023-04-06T07:32:25;7.88;;;4.20;;
69937;SDS011;57248;47.320;15.998;2023-04-06T07:34:57;8.23;;;3.95;;
69937;SDS011;57248;47.320;15.998;2023-04-06T07:37:30;7.30;;;3.73;;
69937;SDS011;57248;47.320;15.998;2023-04-06T07:40:02;7.65;;;4.25;;
69937;SDS011;57248;47.320;15.998;2023-04-06T07:42:34;8.48;;;4.70;;
69937;SDS011;57248;47.320;15.998;2023-04-06T07:45:07;7.30;;;4.60;;
69937;SDS011;57248;47.320;15.998;2023-04-06T07:47:42;6.45;;;4.47;;
69937;SDS011;57248;47.320;15.998;2023-04-06T07:50:14;9.23;;;4.67;;
69937;SDS011;57248;47.320;15.998;2023-04-06T07:52:46;8.05;;;5.15;;
69937;SDS011;57248;47.320;15.998;2023-04-06T07:55:19;6.10;;;4.10;;
69937;SDS011;57248;47.320;15.998;2023-04-06T07:57:51;7.53;;;5.05;;
69937;SDS011;57248;47.320;15.998;2023-04-06T08:00:25;11.27;;;7.47;;
69937;SDS011;57248;47.320;15.998;2023-04-06T08:02:57;7.23;;;5.20;;
69937;SDS011;57248;47.320;15.998;2023-04-06T08:05:29;6.95;;;4.60;;
69937;SDS011;57248;47.320;15.998;2023-04-06T08:08:01;8.13;;;5.10;;
69937;SDS011;57248;47.320;15.998;2023-04-06T08:10:27;6.93;;;5.30;;
69937;SDS011;57248;47.320;15.998;2023-04-06T08:12:58;7.45;;;5.10;;
69937;SDS011;57248;47.320;15.998;2023-04-06T08:15:31;7.68;;;5.85;;
69937;SDS011;57248;47.320;15.998;2023-04-06T08:18:03;7.22;;;5.47;;
69937;SDS011;57248;47.320;15.998;2023-04-06T08:20:42;6.97;;;5.50;;
69937;SDS011;57248;47.320;15.998;2023-04-06T08:23:15;5.63;;;3.60;;
69937;SDS011;57248;47.320;15.998;2023-04-06T08:25:47;4.97;;;3.92;;
69937;SDS011;57248;47.320;15.998;2023-04-06T08:28:21;4.60;;;3.58;;
69937;SDS011;57248;47.320;15.998;2023-04-06T08:30:53;5.00;;;3.40;;
69937;SDS011;57248;47.320;15.998;2023-04-06T08:33:26;5.20;;;3.33;;
69937;SDS011;57248;47.320;15.998;2023-04-06T08:35:57;4.90;;;3.55;;
69937;SDS011;57248;47.320;15.998;2023-04-06T08:38:29;6.78;;;4.18;;
69937;SDS011;57248;47.320;15.998;2023-04-06T08:41:11;4.88;;;3.67;;
69937;SDS011;57248;47.320;15.998;2023-04-06T08:43:49;4.45;;;3.80;;
69937;SDS011;57248;47.320;15.998;2023-04-06T08:46:29;4.83;;;3.67;;
69937;SDS011;57248;47.320;15.998;2023-04-06T08:49:02;5.65;;;3.40;;
69937;SDS011;57248;47.320;15.998;2023-04-06T08:51:36;5.45;;;3.80;;
69937;SDS011;57248;47.320;15.998;2023-04-06T08:54:03;4.70;;;3.63;;
69937;SDS011;57248;47.320;15.998;2023-04-06T08:56:37;5.15;;;3.95;;
69937;SDS011;57248;47.320;15.998;2023-04-06T08:59:09;5.17;;;4.23;;
69937;SDS011;57248;47.320;15.998;2023-04-06T09:01:42;4.65;;;3.83;;
69937;SDS011;57248;47.320;15.998;2023-04-06T09:04:17;5.18;;;4.53;;
69937;SDS011;57248;47.320;15.998;2023-04-06T09:07:04;4.53;;;3.75;;
69937;SDS011;57248;47.320;15.998;2023-04-06T09:09:36;4.97;;;4.38;;
69937;SDS011;57248;47.320;15.998;2023-04-06T09:12:26;4.97;;;3.90;;
69937;SDS011;57248;47.320;15.998;2023-04-06T09:15:00;4.65;;;4.20;;
69937;SDS011;57248;47.320;15.998;2023-04-06T09:17:39;5.53;;;4.75;;
69937;SDS011;57248;47.320;15.998;2023-04-06T09:20:21;5.55;;;4.35;;
69937;SDS011;57248;47.320;15.998;2023-04-06T09:23:01;4.68;;;4.22;;
69937;SDS011;57248;47.320;15.998;2023-04-06T09:25:33;6.10;;;5.07;;
69937;SDS011;57248;47.320;15.998;2023-04-06T09:28:05;6.45;;;4.70;;
69937;SDS011;57248;47.320;15.998;2023-04-06T09:30:47;5.72;;;5.07;;
69937;SDS011;57248;47.320;15.998;2023-04-06T09:33:23;5.93;;;5.30;;
69937;SDS011;57248;47.320;15.998;2023-04-06T09:35:55;5.78;;;5.18;;
69937;SDS011;57248;47.320;15.998;2023-04-06T09:38:27;5.93;;;5.33;;
69937;SDS011;57248;47.320;15.998;2023-04-06T09:40:53;6.05;;;5.30;;
69937;SDS011;57248;47.320;15.998;2023-04-06T09:43:26;6.30;;;5.70;;
69937;SDS011;57248;47.320;15.998;2023-04-06T09:45:59;6.30;;;5.70;;
69937;SDS011;57248;47.320;15.998;2023-04-06T09:48:33;6.20;;;5.60;;
69937;SDS011;57248;47.320;15.998;2023-04-06T09:51:06;6.35;;;5.65;;
69937;SDS011;57248;47.320;15.998;2023-04-06T09:53:41;6.13;;;5.53;;
69937;SDS011;57248;47.320;15.998;2023-04-06T09:56:17;7.00;;;5.45;;
69937;SDS011;57248;47.320;15.998;2023-04-06T09:58:56;5.53;;;5.03;;
69937;SDS011;57248;47.320;15.998;2023-04-06T10:01:32;5.03;;;4.45;;
69937;SDS011;57248;47.320;15.998;2023-04-06T10:06:58;6.45;;;4.60;;
69937;SDS011;57248;47.320;15.998;2023-04-06T10:09:25;4.95;;;4.53;;
69937;SDS011;57248;47.320;15.998;2023-04-06T10:12:06;5.73;;;4.93;;
69937;SDS011;57248;47.320;15.998;2023-04-06T10:14:38;4.93;;;4.35;;
69937;SDS011;57248;47.320;15.998;2023-04-06T10:17:19;5.45;;;4.95;;
69937;SDS011;57248;47.320;15.998;2023-04-06T10:20:18;5.47;;;4.97;;
69937;SDS011;57248;47.320;15.998;2023-04-06T10:23:05;6.20;;;5.57;;
69937;SDS011;57248;47.320;15.998;2023-04-06T10:25:54;5.10;;;4.40;;
69937;SDS011;57248;47.320;15.998;2023-04-06T10:28:35;4.95;;;4.00;;
69937;SDS011;57248;47.320;15.998;2023-04-06T10:31:07;5.55;;;4.22;;
69937;SDS011;57248;47.320;15.998;2023-04-06T10:33:39;5.10;;;3.30;;
69937;SDS011;57248;47.320;15.998;2023-04-06T10:36:15;5.30;;;3.88;;
69937;SDS011;57248;47.320;15.998;2023-04-06T10:38:54;4.27;;;3.07;;
69937;SDS011;57248;47.320;15.998;2023-04-06T10:41:42;5.93;;;3.88;;
69937;SDS011;57248;47.320;15.998;2023-04-06T10:44:21;5.20;;;4.43;;
69937;SDS011;57248;47.320;15.998;2023-04-06T10:46:57;5.07;;;4.63;;
69937;SDS011;57248;47.320;15.998;2023-04-06T10:49:32;5.45;;;4.60;;
69937;SDS011;57248;47.320;15.998;2023-04-06T10:52:04;4.70;;;4.20;;
69937;SDS011;57248;47.320;15.998;2023-04-06T10:54:42;5.15;;;4.30;;
69937;SDS011;57248;47.320;15.998;2023-04-06T10:57:17;5.40;;;4.90;;
69937;SDS011;57248;47.320;15.998;2023-04-06T11:00:05;5.75;;;5.18;;
69937;SDS011;57248;47.320;15.998;2023-04-06T11:02:37;5.57;;;3.90;;
69937;SDS011;57248;47.320;15.998;2023-04-06T11:05:11;4.47;;;3.90;;
69937;SDS011;57248;47.320;15.998;2023-04-06T11:07:43;5.15;;;3.90;;
69937;SDS011;57248;47.320;15.998;2023-04-06T11:10:21;5.57;;;4.25;;
69937;SDS011;57248;47.320;15.998;2023-04-06T11:12:54;4.80;;;4.30;;
69937;SDS011;57248;47.320;15.998;2023-04-06T11:15:33;6.20;;;5.47;;
69937;SDS011;57248;47.320;15.998;2023-04-06T11:18:05;6.50;;;5.90;;
69937;SDS011;57248;47.320;15.998;2023-04-06T11:20:37;6.53;;;6.03;;
69937;SDS011;57248;47.320;15.998;2023-04-06T11:23:09;6.47;;;5.97;;
69937;SDS011;57248;47.320;15.998;2023-04-06T11:25:49;6.20;;;5.70;;
69937;SDS011;57248;47.320;15.998;2023-04-06T11:28:22;6.40;;;5.90;;
69937;SDS011;57248;47.320;15.998;2023-04-06T11:30:54;6.03;;;5.53;;
69937;SDS011;57248;47.320;15.998;2023-04-06T11:33:26;6.20;;;5.60;;
69937;SDS011;57248;47.320;15.998;2023-04-06T11:35:58;6.00;;;5.50;;
69937;SDS011;57248;47.320;15.998;2023-04-06T11:38:30;4.97;;;4.32;;
69937;SDS011;57248;47.320;15.998;2023-04-06T11:41:04;5.13;;;4.63;;
69937;SDS011;57248;47.320;15.998;2023-04-06T11:43:37;5.30;;;4.20;;
69937;SDS011;57248;47.320;15.998;2023-04-06T11:46:09;5.90;;;4.82;;
69937;SDS011;57248;47.320;15.998;2023-04-06T11:48:45;6.00;;;5.40;;
69937;SDS011;57248;47.320;15.998;2023-04-06T11:51:21;4.55;;;4.15;;
69937;SDS011;57248;47.320;15.998;2023-04-06T11:53:54;4.65;;;4.25;;
69937;SDS011;57248;47.320;15.998;2023-04-06T11:56:28;5.60;;;5.10;;
69937;SDS011;57248;47.320;15.998;2023-04-06T11:59:01;6.60;;;6.00;;
69937;SDS011;57248;47.320;15.998;2023-04-06T12:01:34;5.78;;;4.22;;
69937;SDS011;57248;47.320;15.998;2023-04-06T12:04:16;5.45;;;4.80;;
69937;SDS011;57248;47.320;15.998;2023-04-06T12:06:49;5.95;;;5.35;;
69937;SDS011;57248;47.320;15.998;2023-04-06T12:09:22;4.30;;;3.90;;
69937;SDS011;57248;47.320;15.998;2023-04-06T12:11:54;5.15;;;3.75;;
69937;SDS011;57248;47.320;15.998;2023-04-06T12:14:27;5.25;;;4.75;;
69937;SDS011;57248;47.320;15.998;2023-04-06T12:17:06;4.35;;;3.95;;
69937;SDS011;57248;47.320;15.998;2023-04-06T12:19:38;4.40;;;4.00;;
69937;SDS011;57248;47.320;15.998;2023-04-06T12:22:17;6.47;;;4.20;;
69937;SDS011;57248;47.320;15.998;2023-04-06T12:24:49;5.18;;;4.68;;
69937;SDS011;57248;47.320;15.998;2023-04-06T12:27:23;5.35;;;4.65;;
69937;SDS011;57248;47.320;15.998;2023-04-06T12:29:54;4.10;;;3.60;;
69937;SDS011;57248;47.320;15.998;2023-04-06T12:32:28;4.18;;;3.78;;
69937;SDS011;57248;47.320;15.998;2023-04-06T12:34:59;3.70;;;3.20;;
69937;SDS011;57248;47.320;15.998;2023-04-06T12:37:31;3.45;;;2.60;;
69937;SDS011;57248;47.320;15.998;2023-04-06T12:40:03;3.78;;;3.38;;
69937;SDS011;57248;47.320;15.998;2023-04-06T12:42:38;3.50;;;2.38;;
69937;SDS011;57248;47.320;15.998;2023-04-06T12:45:13;3.63;;;2.40;;
69937;SDS011;57248;47.320;15.998;2023-04-06T12:47:44;3.77;;;2.77;;
69937;SDS011;57248;47.320;15.998;2023-04-06T12:50:17;3.60;;;2.38;;
69937;SDS011;57248;47.320;15.998;2023-04-06T12:52:49;3.55;;;3.10;;
69937;SDS011;57248;47.320;15.998;2023-04-06T12:55:23;3.63;;;2.95;;
69937;SDS011;57248;47.320;15.998;2023-04-06T12:57:54;4.10;;;3.03;;
69937;SDS011;57248;47.320;15.998;2023-04-06T13:00:26;3.97;;;2.70;;
69937;SDS011;57248;47.320;15.998;2023-04-06T13:02:58;3.88;;;3.40;;
69937;SDS011;57248;47.320;15.998;2023-04-06T13:05:30;4.65;;;4.20;;
69937;SDS011;57248;47.320;15.998;2023-04-06T13:08:03;4.28;;;3.88;;
69937;SDS011;57248;47.320;15.998;2023-04-06T13:10:35;5.68;;;3.30;;
69937;SDS011;57248;47.320;15.998;2023-04-06T13:13:07;3.77;;;2.60;;
69937;SDS011;57248;47.320;15.998;2023-04-06T13:15:33;3.78;;;2.90;;
69937;SDS011;57248;47.320;15.998;2023-04-06T13:18:14;4.72;;;3.17;;
69937;SDS011;57248;47.320;15.998;2023-04-06T13:20:48;3.60;;;3.20;;
69937;SDS011;57248;47.320;15.998;2023-04-06T13:23:20;4.85;;;3.17;;
69937;SDS011;57248;47.320;15.998;2023-04-06T13:25:46;3.90;;;3.40;;
69937;SDS011;57248;47.320;15.998;2023-04-06T13:28:17;3.85;;;3.45;;
69937;SDS011;57248;47.320;15.998;2023-04-06T13:30:49;3.80;;;3.10;;
69937;SDS011;57248;47.320;15.998;2023-04-06T13:33:22;4.28;;;3.05;;
69937;SDS011;57248;47.320;15.998;2023-04-06T13:35:54;7.32;;;3.25;;
69937;SDS011;57248;47.320;15.998;2023-04-06T13:38:27;3.97;;;2.30;;
69937;SDS011;57248;47.320;15.998;2023-04-06T13:40:53;5.10;;;2.40;;
69937;SDS011;57248;47.320;15.998;2023-04-06T13:43:25;6.10;;;2.33;;
69937;SDS011;57248;47.320;15.998;2023-04-06T13:45:58;4.03;;;2.20;;
69937;SDS011;57248;47.320;15.998;2023-04-06T13:48:32;4.18;;;2.60;;
69937;SDS011;57248;47.320;15.998;2023-04-06T13:51:08;5.63;;;2.50;;
69937;SDS011;57248;47.320;15.998;2023-04-06T13:53:41;3.72;;;2.60;;
69937;SDS011;57248;47.320;15.998;2023-04-06T13:56:13;3.35;;;2.65;;
69937;SDS011;57248;47.320;15.998;2023-04-06T13:58:45;3.50;;;2.50;;
69937;SDS011;57248;47.320;15.998;2023-04-06T14:01:19;3.53;;;2.22;;
69937;SDS011;57248;47.320;15.998;2023-04-06T14:03:50;4.33;;;1.80;;
69937;SDS011;57248;47.320;15.998;2023-04-06T14:06:24;3.05;;;2.00;;
69937;SDS011;57248;47.320;15.998;2023-04-06T14:09:00;3.28;;;2.08;;
69937;SDS011;57248;47.320;15.998;2023-04-06T14:11:26;4.15;;;2.45;;
69937;SDS011;57248;47.320;15.998;2023-04-06T14:13:59;4.57;;;2.10;;
69937;SDS011;57248;47.320;15.998;2023-04-06T14:16:30;4.65;;;1.83;;
69937;SDS011;57248;47.320;15.998;2023-04-06T14:19:02;3.38;;;1.88;;
69937;SDS011;57248;47.320;15.998;2023-04-06T14:21:47;2.60;;;1.63;;
69937;SDS011;57248;47.320;15.998;2023-04-06T14:24:19;4.07;;;2.05;;
69937;SDS011;57248;47.320;15.998;2023-04-06T14:26:51;3.67;;;1.60;;
69937;SDS011;57248;47.320;15.998;2023-04-06T14:29:23;3.33;;;1.60;;
69937;SDS011;57248;47.320;15.998;2023-04-06T14:31:55;3.22;;;1.73;;
69937;SDS011;57248;47.320;15.998;2023-04-06T14:34:31;2.70;;;1.20;;
69937;SDS011;57248;47.320;15.998;2023-04-06T14:37:03;2.70;;;1.50;;
69937;SDS011;57248;47.320;15.998;2023-04-06T14:39:35;2.97;;;1.67;;
69937;SDS011;57248;47.320;15.998;2023-04-06T14:42:07;3.25;;;1.70;;
69937;SDS011;57248;47.320;15.998;2023-04-06T14:44:39;3.03;;;2.00;;
69937;SDS011;57248;47.320;15.998;2023-04-06T14:47:08;4.20;;;2.10;;
69937;SDS011;57248;47.320;15.998;2023-04-06T14:49:41;3.97;;;1.95;;
69937;SDS011;57248;47.320;15.998;2023-04-06T14:52:06;4.23;;;1.97;;
69937;SDS011;57248;47.320;15.998;2023-04-06T14:54:37;4.70;;;2.03;;
69937;SDS011;57248;47.320;15.998;2023-04-06T14:57:04;3.70;;;2.00;;
69937;SDS011;57248;47.320;15.998;2023-04-06T14:59:36;3.83;;;2.00;;
69937;SDS011;57248;47.320;15.998;2023-04-06T15:02:10;4.90;;;2.40;;
69937;SDS011;57248;47.320;15.998;2023-04-06T15:04:41;5.00;;;1.93;;
69937;SDS011;57248;47.320;15.998;2023-04-06T15:07:15;5.32;;;1.80;;
69937;SDS011;57248;47.320;15.998;2023-04-06T15:09:46;3.58;;;1.60;;
69937;SDS011;57248;47.320;15.998;2023-04-06T15:12:19;4.68;;;1.75;;
69937;SDS011;57248;47.320;15.998;2023-04-06T15:14:51;6.25;;;1.60;;
69937;SDS011;57248;47.320;15.998;2023-04-06T15:17:30;3.73;;;1.30;;
69937;SDS011;57248;47.320;15.998;2023-04-06T15:20:02;3.20;;;1.60;;